createdAt,value
2023-04-15T00:02:14.651Z,7.15
2023-04-15T00:07:16.408Z,8.55
2023-04-15T00:12:22.423Z,8.70
2023-04-15T00:17:26.926Z,8.00
2023-04-15T00:22:30.668Z,8.80
2023-04-15T00:27:33.602Z,7.40
2023-04-15T00:32:38.106Z,5.60
2023-04-15T00:37:45.928Z,7.28
2023-04-15T00:42:49.220Z,8.50
2023-04-15T00:47:55.252Z,5.40
2023-04-15T00:52:57.021Z,9.82
2023-04-15T00:58:09.625Z,11.38
2023-04-15T01:03:11.439Z,11.48
2023-04-15T01:08:13.203Z,6.05
2023-04-15T01:13:16.133Z,7.93
2023-04-15T01:18:18.013Z,6.82
2023-04-15T01:23:20.124Z,8.32
2023-04-15T01:28:27.445Z,9.95
2023-04-15T01:33:31.501Z,8.05
2023-04-15T01:38:33.362Z,6.70
2023-04-15T01:43:37.770Z,7.90
2023-04-15T01:48:39.788Z,8.88
2023-04-15T01:53:41.442Z,6.18
2023-04-15T01:58:45.055Z,6.25
2023-04-15T02:03:47.108Z,8.60
2023-04-15T02:08:50.271Z,7.97
2023-04-15T02:13:55.706Z,7.18
2023-04-15T02:18:57.302Z,6.45
2023-04-15T02:23:58.956Z,8.90
2023-04-15T02:29:02.077Z,8.15
2023-04-15T02:34:05.662Z,5.03
2023-04-15T02:39:09.889Z,4.78
2023-04-15T02:44:12.928Z,7.38
2023-04-15T02:49:14.723Z,6.03
2023-04-15T02:54:20.339Z,7.25
2023-04-15T02:59:23.689Z,5.88
2023-04-15T03:04:27.232Z,4.25
2023-04-15T03:09:36.611Z,6.03
2023-04-15T03:14:43.126Z,5.75
2023-04-15T03:19:44.843Z,4.90
2023-04-15T03:24:50.087Z,7.78
2023-04-15T03:29:53.234Z,7.50
2023-04-15T03:34:58.929Z,9.02
2023-04-15T03:40:02.612Z,6.00
2023-04-15T03:45:09.690Z,6.25
2023-04-15T03:50:14.064Z,5.82
2023-04-15T03:55:23.842Z,7.03
2023-04-15T04:00:26.831Z,5.95
2023-04-15T04:05:28.477Z,6.38
2023-04-15T04:10:33.239Z,6.40
2023-04-15T04:15:37.820Z,8.68
2023-04-15T04:20:39.554Z,7.53
2023-04-15T04:25:44.275Z,5.50
2023-04-15T04:30:49.895Z,5.85
2023-04-15T04:35:51.482Z,10.77
2023-04-15T04:40:53.067Z,6.75
2023-04-15T04:45:56.085Z,7.13
2023-04-15T04:50:57.848Z,6.80
2023-04-15T04:55:59.478Z,5.82
2023-04-15T05:01:02.505Z,8.85
2023-04-15T05:06:04.243Z,8.32
2023-04-15T05:11:05.915Z,7.88
2023-04-15T05:16:11.639Z,7.57
2023-04-15T05:21:15.220Z,7.70
2023-04-15T05:26:16.883Z,7.00
2023-04-15T05:31:23.049Z,10.35
2023-04-15T05:36:24.657Z,6.93
2023-04-15T05:41:28.807Z,6.05
2023-04-15T05:46:34.689Z,9.43
2023-04-15T05:51:36.769Z,5.20
2023-04-15T05:56:43.017Z,7.55
2023-04-15T06:01:48.572Z,6.25
2023-04-15T06:06:51.932Z,7.80
2023-04-15T06:11:53.530Z,5.85
2023-04-15T06:16:57.988Z,4.78
2023-04-15T06:21:59.644Z,8.23
2023-04-15T06:27:07.186Z,7.20
2023-04-15T06:32:13.394Z,10.80
2023-04-15T06:37:16.796Z,6.72
2023-04-15T06:42:21.222Z,10.30
2023-04-15T06:47:26.089Z,7.20
2023-04-15T06:52:27.744Z,7.60
2023-04-15T06:57:29.693Z,7.57
2023-04-15T07:02:32.847Z,5.78
2023-04-15T07:07:34.635Z,7.35
2023-04-15T07:12:36.294Z,8.23
2023-04-15T07:17:41.909Z,8.82
2023-04-15T07:22:43.602Z,7.82
2023-04-15T07:27:45.273Z,7.57
2023-04-15T07:32:52.214Z,7.38
2023-04-15T07:37:56.868Z,6.88
2023-04-15T07:42:58.567Z,8.32
2023-04-15T07:48:04.805Z,9.52
2023-04-15T07:53:07.000Z,6.18
2023-04-15T07:58:11.110Z,7.13
2023-04-15T08:03:17.305Z,8.25
2023-04-15T08:08:18.999Z,8.68
2023-04-15T08:13:20.633Z,10.27
2023-04-15T08:18:26.293Z,8.57
2023-04-15T08:23:27.897Z,8.02
2023-04-15T08:28:32.656Z,11.20
2023-04-15T08:33:38.224Z,13.27
2023-04-15T08:38:39.889Z,11.48
2023-04-15T08:43:51.926Z,14.73
2023-04-15T08:49:03.394Z,7.28
2023-04-15T08:54:10.456Z,8.80
2023-04-15T08:59:12.129Z,9.40
2023-04-15T09:04:15.201Z,8.57
2023-04-15T09:09:19.467Z,11.77
2023-04-15T09:14:24.048Z,7.72
2023-04-15T09:19:31.757Z,8.57
2023-04-15T09:24:37.449Z,8.63
2023-04-15T09:29:44.289Z,11.63
2023-04-15T09:34:49.214Z,5.68
2023-04-15T09:39:51.971Z,8.25
2023-04-15T09:44:53.903Z,6.45
2023-04-15T09:49:57.700Z,6.43
2023-04-15T09:55:02.877Z,10.70
2023-04-15T10:00:13.760Z,6.40
2023-04-15T10:05:20.682Z,6.97
2023-04-15T10:10:25.697Z,4.75
2023-04-15T10:15:29.956Z,7.53
2023-04-15T10:20:33.873Z,5.82
2023-04-15T10:25:47.221Z,2.33
2023-04-15T10:30:51.382Z,2.80
2023-04-15T10:35:57.800Z,2.47
2023-04-15T10:41:12.657Z,2.33
2023-04-15T10:46:14.699Z,3.47
2023-04-15T10:51:31.620Z,3.28
2023-04-15T10:56:35.989Z,2.45
2023-04-15T11:01:56.810Z,4.65
2023-04-15T11:07:06.925Z,5.60
2023-04-15T11:12:15.135Z,4.00
2023-04-15T11:17:27.382Z,2.78
2023-04-15T11:22:30.428Z,3.35
2023-04-15T11:27:37.709Z,4.78
2023-04-15T11:32:55.668Z,5.95
2023-04-15T11:38:02.498Z,6.53
2023-04-15T11:43:10.020Z,3.58
2023-04-15T11:48:14.272Z,4.22
2023-04-15T11:53:18.744Z,3.55
2023-04-15T11:58:24.000Z,5.07
2023-04-15T12:03:29.823Z,4.27
2023-04-15T12:09:14.322Z,2.20
2023-04-15T12:14:24.707Z,2.00
2023-04-15T12:19:30.599Z,4.50
2023-04-15T12:24:33.055Z,2.15
2023-04-15T12:29:41.306Z,3.90
2023-04-15T12:34:52.078Z,2.45
2023-04-15T12:39:53.789Z,1.85
2023-04-15T12:44:58.068Z,1.45
2023-04-15T12:50:02.817Z,6.07
2023-04-15T12:55:07.805Z,1.00
2023-04-15T13:00:14.911Z,2.65
2023-04-15T13:05:20.166Z,2.05
2023-04-15T13:10:21.947Z,2.28
2023-04-15T13:15:29.654Z,1.95
2023-04-15T13:20:35.176Z,1.63
2023-04-15T13:25:38.652Z,1.70
2023-04-15T13:30:41.760Z,1.55
2023-04-15T13:35:47.544Z,1.73
2023-04-15T13:40:49.151Z,1.70
2023-04-15T13:45:52.203Z,1.90
2023-04-15T13:51:00.349Z,2.40
2023-04-15T13:56:02.139Z,1.90
2023-04-15T14:01:07.737Z,4.50
2023-04-15T14:06:16.855Z,3.50
2023-04-15T14:11:21.329Z,1.88
2023-04-15T14:16:24.552Z,3.28
2023-04-15T14:21:33.721Z,3.00
2023-04-15T14:26:35.401Z,3.63
2023-04-15T14:31:40.308Z,4.30
2023-04-15T14:36:44.896Z,2.75
2023-04-15T14:41:51.324Z,3.00
2023-04-15T14:46:54.368Z,3.85
2023-04-15T14:51:57.886Z,3.15
2023-04-15T14:56:59.575Z,2.30
2023-04-15T15:02:10.484Z,3.80
2023-04-15T15:07:16.913Z,2.47
2023-04-15T15:12:23.802Z,3.25
2023-04-15T15:17:28.167Z,4.55
2023-04-15T15:22:31.522Z,3.47
2023-04-15T15:27:51.045Z,4.95
2023-04-15T15:32:57.126Z,4.45
2023-04-15T15:37:59.736Z,4.93
2023-04-15T15:43:04.086Z,4.53
2023-04-15T15:48:10.930Z,4.00
2023-04-15T15:53:15.783Z,6.35
2023-04-15T15:58:17.869Z,7.65
2023-04-15T16:03:23.630Z,8.10
2023-04-15T16:08:31.511Z,11.05
2023-04-15T16:13:34.873Z,8.20
2023-04-15T16:18:38.184Z,8.70
2023-04-15T16:23:44.862Z,5.47
2023-04-15T16:28:46.549Z,9.50
2023-04-15T16:33:49.604Z,7.93
2023-04-15T16:38:54.009Z,7.78
2023-04-15T16:43:58.598Z,6.47
2023-04-15T16:49:06.561Z,8.02
2023-04-15T16:54:08.653Z,7.88
2023-04-15T16:59:11.807Z,9.82
2023-04-15T17:04:20.352Z,6.88
2023-04-15T17:09:27.777Z,8.00
2023-04-15T17:14:32.555Z,7.47
2023-04-15T17:19:35.583Z,8.50
2023-04-15T17:24:40.162Z,11.43
2023-04-15T17:29:44.294Z,9.45
2023-04-15T17:34:57.179Z,11.35
2023-04-15T17:39:58.887Z,11.35
2023-04-15T17:45:00.572Z,10.13
2023-04-15T17:50:03.828Z,6.93
2023-04-15T17:55:07.226Z,9.43
2023-04-15T18:00:22.429Z,10.13
2023-04-15T18:05:33.810Z,8.13
2023-04-15T18:10:35.948Z,13.50
2023-04-15T18:15:39.305Z,15.18
2023-04-15T18:20:45.539Z,15.70
2023-04-15T18:25:50.749Z,7.55
2023-04-15T18:30:52.386Z,8.20
2023-04-15T18:35:58.468Z,11.60
2023-04-15T18:41:05.074Z,20.52
2023-04-15T18:46:07.207Z,9.40
2023-04-15T18:51:16.404Z,12.52
2023-04-15T18:56:23.799Z,7.20
2023-04-15T19:01:25.550Z,7.32
2023-04-15T19:06:41.007Z,8.23
2023-04-15T19:11:48.902Z,7.60
2023-04-15T19:16:59.723Z,8.13
2023-04-15T19:22:02.938Z,8.45
2023-04-15T19:27:04.663Z,8.10
2023-04-15T19:32:09.260Z,7.20
2023-04-15T19:37:17.940Z,7.55
2023-04-15T19:47:21.375Z,7.43
2023-04-15T19:52:24.419Z,8.43
2023-04-15T19:57:26.183Z,7.47
2023-04-15T20:02:29.118Z,9.07
2023-04-15T20:07:32.214Z,8.77
2023-04-15T20:12:51.301Z,8.20
2023-04-15T20:17:56.545Z,7.35
2023-04-15T20:23:02.663Z,6.25
2023-04-15T20:28:06.968Z,6.32
2023-04-15T20:33:13.701Z,7.00
2023-04-15T20:38:16.886Z,4.93
2023-04-15T20:43:18.540Z,5.32
2023-04-15T20:48:20.185Z,5.72
2023-04-15T20:53:24.379Z,6.03
2023-04-15T20:58:28.968Z,5.43
2023-04-15T21:03:30.894Z,4.47
2023-04-15T21:08:34.044Z,6.03
2023-04-15T21:13:38.478Z,6.38
2023-04-15T21:18:44.570Z,5.72
2023-04-15T21:23:47.626Z,6.90
2023-04-15T21:28:49.666Z,5.70
2023-04-15T21:33:54.088Z,6.65
2023-04-15T21:39:02.171Z,7.35
2023-04-15T21:44:06.038Z,7.20
2023-04-15T21:49:08.267Z,6.85
2023-04-15T21:54:12.853Z,7.25
2023-04-15T21:59:16.217Z,7.35
2023-04-15T22:04:17.958Z,6.68
2023-04-15T22:09:24.085Z,8.45
2023-04-15T22:14:25.809Z,6.38
2023-04-15T22:19:27.492Z,9.05
2023-04-15T22:24:39.976Z,10.30
2023-04-15T22:29:42.290Z,10.07
2023-04-15T22:34:43.928Z,8.88
2023-04-15T22:39:49.824Z,10.05
2023-04-15T22:44:57.663Z,11.70
2023-04-15T22:50:10.297Z,10.07
2023-04-15T22:55:16.551Z,11.00
2023-04-15T23:00:23.851Z,10.77
2023-04-15T23:05:25.685Z,10.07
2023-04-15T23:10:31.473Z,11.60
2023-04-15T23:15:38.877Z,12.95
2023-04-15T23:20:44.954Z,10.33
2023-04-15T23:25:50.567Z,11.55
2023-04-15T23:30:52.265Z,15.57
2023-04-15T23:35:57.001Z,12.43
2023-04-15T23:41:01.711Z,12.07
2023-04-15T23:46:03.484Z,13.27
2023-04-15T23:51:07.643Z,12.48
2023-04-15T23:56:12.632Z,14.32
